sensor_id;sensor_type;location;lat;lon;timestamp;pressure;altitude;pressure_sealevel;temperature;humidity
57024;BME280;42916;54.346;18.562;2022-11-20T00:01:20;100011.89;;;-3.13;100.00
57024;BME280;42916;54.346;18.562;2022-11-20T00:03:47;100016.26;;;-3.12;100.00
57024;BME280;42916;54.346;18.562;2022-11-20T00:06:16;100014.54;;;-3.12;100.00
57024;BME280;42916;54.346;18.562;2022-11-20T00:08:44;100015.23;;;-3.12;100.00
57024;BME280;42916;54.346;18.562;2022-11-20T00:11:22;100015.66;;;-3.13;100.00
57024;BME280;42916;54.346;18.562;2022-11-20T00:13:52;100015.93;;;-3.14;100.00
57024;BME280;42916;54.346;18.562;2022-11-20T00:16:21;100013.77;;;-3.15;100.00
57024;BME280;42916;54.346;18.562;2022-11-20T00:18:49;100011.55;;;-3.14;100.00
57024;BME280;42916;54.346;18.562;2022-11-20T00:21:19;100008.64;;;-3.12;100.00
57024;BME280;42916;54.346;18.562;2022-11-20T00:23:46;100010.73;;;-3.10;100.00
57024;BME280;42916;54.346;18.562;2022-11-20T00:26:14;100006.50;;;-3.09;100.00
57024;BME280;42916;54.346;18.562;2022-11-20T00:28:42;100008.27;;;-3.08;100.00
57024;BME280;42916;54.346;18.562;2022-11-20T00:31:16;100007.71;;;-3.07;100.00
57024;BME280;42916;54.346;18.562;2022-11-20T00:33:43;100006.89;;;-3.06;100.00
57024;BME280;42916;54.346;18.562;2022-11-20T00:36:13;100008.03;;;-3.05;100.00
57024;BME280;42916;54.346;18.562;2022-11-20T00:38:40;100010.35;;;-3.04;100.00
57024;BME280;42916;54.346;18.562;2022-11-20T00:41:09;100010.31;;;-3.02;100.00
57024;BME280;42916;54.346;18.562;2022-11-20T00:43:36;100007.94;;;-3.01;100.00
57024;BME280;42916;54.346;18.562;2022-11-20T00:48:55;100012.98;;;-2.99;100.00
57024;BME280;42916;54.346;18.562;2022-11-20T00:51:24;100015.85;;;-2.99;100.00
57024;BME280;42916;54.346;18.562;2022-11-20T00:53:51;100015.14;;;-2.99;100.00
57024;BME280;42916;54.346;18.562;2022-11-20T00:56:19;100015.09;;;-3.00;100.00
57024;BME280;42916;54.346;18.562;2022-11-20T00:58:47;100019.20;;;-2.99;100.00
57024;BME280;42916;54.346;18.562;2022-11-20T01:01:15;100016.60;;;-2.98;100.00
57024;BME280;42916;54.346;18.562;2022-11-20T01:03:45;100020.38;;;-2.97;100.00
57024;BME280;42916;54.346;18.562;2022-11-20T01:08:44;100017.92;;;-2.95;100.00
57024;BME280;42916;54.346;18.562;2022-11-20T01:11:13;100016.30;;;-2.95;100.00
57024;BME280;42916;54.346;18.562;2022-11-20T01:13:41;100015.18;;;-2.97;100.00
57024;BME280;42916;54.346;18.562;2022-11-20T01:18:42;100015.07;;;-2.98;100.00
57024;BME280;42916;54.346;18.562;2022-11-20T01:21:10;100014.70;;;-2.98;100.00
57024;BME280;42916;54.346;18.562;2022-11-20T01:23:39;100017.38;;;-3.00;100.00
57024;BME280;42916;54.346;18.562;2022-11-20T01:26:09;100013.36;;;-3.03;100.00
57024;BME280;42916;54.346;18.562;2022-11-20T01:28:39;100013.04;;;-3.02;100.00
57024;BME280;42916;54.346;18.562;2022-11-20T01:31:16;100008.13;;;-3.05;100.00
57024;BME280;42916;54.346;18.562;2022-11-20T01:33:45;100010.13;;;-3.05;100.00
57024;BME280;42916;54.346;18.562;2022-11-20T01:36:12;100009.36;;;-3.06;100.00
57024;BME280;42916;54.346;18.562;2022-11-20T01:38:40;100009.09;;;-3.08;100.00
57024;BME280;42916;54.346;18.562;2022-11-20T01:41:07;100008.66;;;-3.09;100.00
57024;BME280;42916;54.346;18.562;2022-11-20T01:43:35;100010.84;;;-3.07;100.00
57024;BME280;42916;54.346;18.562;2022-11-20T01:51:33;100008.45;;;-3.07;100.00
57024;BME280;42916;54.346;18.562;2022-11-20T01:54:05;100009.20;;;-3.08;100.00
57024;BME280;42916;54.346;18.562;2022-11-20T01:56:37;100011.95;;;-3.10;100.00
57024;BME280;42916;54.346;18.562;2022-11-20T01:59:07;100010.08;;;-3.11;100.00
57024;BME280;42916;54.346;18.562;2022-11-20T02:01:34;100009.84;;;-3.09;100.00
57024;BME280;42916;54.346;18.562;2022-11-20T02:04:01;100010.79;;;-3.06;100.00
57024;BME280;42916;54.346;18.562;2022-11-20T02:06:32;100012.27;;;-3.06;100.00
57024;BME280;42916;54.346;18.562;2022-11-20T02:09:01;100009.40;;;-3.05;100.00
57024;BME280;42916;54.346;18.562;2022-11-20T02:11:30;100011.95;;;-3.02;100.00
57024;BME280;42916;54.346;18.562;2022-11-20T02:13:58;100011.20;;;-3.00;100.00
57024;BME280;42916;54.346;18.562;2022-11-20T02:16:28;100007.67;;;-2.99;100.00
57024;BME280;42916;54.346;18.562;2022-11-20T02:18:58;100010.19;;;-2.99;100.00
57024;BME280;42916;54.346;18.562;2022-11-20T02:24:15;100011.84;;;-2.96;100.00
57024;BME280;42916;54.346;18.562;2022-11-20T02:26:54;100012.98;;;-2.94;100.00
57024;BME280;42916;54.346;18.562;2022-11-20T02:29:25;100008.36;;;-2.94;100.00
57024;BME280;42916;54.346;18.562;2022-11-20T02:31:54;100008.35;;;-2.94;100.00
57024;BME280;42916;54.346;18.562;2022-11-20T02:34:22;100007.77;;;-2.95;100.00
57024;BME280;42916;54.346;18.562;2022-11-20T02:36:49;100006.02;;;-2.97;100.00
57024;BME280;42916;54.346;18.562;2022-11-20T02:39:17;100000.75;;;-3.00;100.00
57024;BME280;42916;54.346;18.562;2022-11-20T02:41:45;100004.45;;;-3.02;100.00
57024;BME280;42916;54.346;18.562;2022-11-20T02:44:12;100003.61;;;-3.01;100.00
57024;BME280;42916;54.346;18.562;2022-11-20T02:46:39;100004.50;;;-2.99;100.00
57024;BME280;42916;54.346;18.562;2022-11-20T02:49:06;100005.34;;;-3.00;100.00
57024;BME280;42916;54.346;18.562;2022-11-20T02:51:32;99999.88;;;-3.00;100.00
57024;BME280;42916;54.346;18.562;2022-11-20T02:53:59;100004.45;;;-3.02;100.00
57024;BME280;42916;54.346;18.562;2022-11-20T02:56:26;100004.52;;;-3.05;100.00
57024;BME280;42916;54.346;18.562;2022-11-20T02:58:53;100001.59;;;-3.06;100.00
57024;BME280;42916;54.346;18.562;2022-11-20T03:01:19;99999.23;;;-3.08;100.00
57024;BME280;42916;54.346;18.562;2022-11-20T03:03:46;99992.05;;;-3.08;100.00
57024;BME280;42916;54.346;18.562;2022-11-20T03:06:16;99992.35;;;-3.08;100.00
57024;BME280;42916;54.346;18.562;2022-11-20T03:08:43;99986.92;;;-3.07;100.00
57024;BME280;42916;54.346;18.562;2022-11-20T03:11:10;99990.19;;;-3.08;100.00
57024;BME280;42916;54.346;18.562;2022-11-20T03:13:36;99985.97;;;-3.11;100.00
57024;BME280;42916;54.346;18.562;2022-11-20T03:16:15;99982.18;;;-3.13;100.00
57024;BME280;42916;54.346;18.562;2022-11-20T03:18:42;99982.95;;;-3.16;100.00
57024;BME280;42916;54.346;18.562;2022-11-20T03:21:11;99979.43;;;-3.17;100.00
57024;BME280;42916;54.346;18.562;2022-11-20T03:23:38;99978.83;;;-3.17;100.00
57024;BME280;42916;54.346;18.562;2022-11-20T03:26:17;99977.67;;;-3.16;100.00
57024;BME280;42916;54.346;18.562;2022-11-20T03:28:51;99983.15;;;-3.16;100.00
57024;BME280;42916;54.346;18.562;2022-11-20T03:31:27;99979.77;;;-3.17;100.00
57024;BME280;42916;54.346;18.562;2022-11-20T03:33:56;99982.19;;;-3.17;100.00
57024;BME280;42916;54.346;18.562;2022-11-20T03:36:23;99980.20;;;-3.18;100.00
57024;BME280;42916;54.346;18.562;2022-11-20T03:38:50;99976.95;;;-3.17;100.00
57024;BME280;42916;54.346;18.562;2022-11-20T03:41:19;99983.65;;;-3.15;100.00
57024;BME280;42916;54.346;18.562;2022-11-20T03:43:50;99981.38;;;-3.11;100.00
57024;BME280;42916;54.346;18.562;2022-11-20T03:46:17;99974.02;;;-3.07;100.00
57024;BME280;42916;54.346;18.562;2022-11-20T03:48:44;99972.89;;;-3.04;100.00
57024;BME280;42916;54.346;18.562;2022-11-20T03:51:13;99968.28;;;-3.00;100.00
57024;BME280;42916;54.346;18.562;2022-11-20T03:53:42;99965.74;;;-2.98;100.00
57024;BME280;42916;54.346;18.562;2022-11-20T03:56:09;99965.38;;;-3.00;100.00
57024;BME280;42916;54.346;18.562;2022-11-20T03:58:37;99964.05;;;-3.01;100.00
57024;BME280;42916;54.346;18.562;2022-11-20T04:01:09;99962.54;;;-3.01;100.00
57024;BME280;42916;54.346;18.562;2022-11-20T04:03:37;99961.48;;;-3.00;100.00
57024;BME280;42916;54.346;18.562;2022-11-20T04:08:33;99964.70;;;-2.97;100.00
57024;BME280;42916;54.346;18.562;2022-11-20T04:11:20;99960.71;;;-2.98;100.00
57024;BME280;42916;54.346;18.562;2022-11-20T04:13:56;99961.85;;;-2.98;100.00
57024;BME280;42916;54.346;18.562;2022-11-20T04:16:24;99956.77;;;-3.00;100.00
57024;BME280;42916;54.346;18.562;2022-11-20T04:18:56;99957.04;;;-3.02;100.00
57024;BME280;42916;54.346;18.562;2022-11-20T04:21:25;99960.75;;;-3.03;100.00
57024;BME280;42916;54.346;18.562;2022-11-20T04:23:52;99959.02;;;-3.04;100.00
57024;BME280;42916;54.346;18.562;2022-11-20T04:26:20;99959.30;;;-3.04;100.00
57024;BME280;42916;54.346;18.562;2022-11-20T04:28:47;99961.35;;;-3.04;100.00
57024;BME280;42916;54.346;18.562;2022-11-20T04:31:19;99958.84;;;-3.07;100.00
57024;BME280;42916;54.346;18.562;2022-11-20T04:33:46;99955.80;;;-3.09;100.00
57024;BME280;42916;54.346;18.562;2022-11-20T04:36:18;99952.16;;;-3.13;100.00
57024;BME280;42916;54.346;18.562;2022-11-20T04:38:46;99947.87;;;-3.22;100.00
57024;BME280;42916;54.346;18.562;2022-11-20T04:41:18;99950.02;;;-3.31;100.00
57024;BME280;42916;54.346;18.562;2022-11-20T04:43:49;99949.75;;;-3.40;100.00
57024;BME280;42916;54.346;18.562;2022-11-20T04:46:17;99949.46;;;-3.47;100.00
57024;BME280;42916;54.346;18.562;2022-11-20T04:48:44;99945.72;;;-3.56;100.00
57024;BME280;42916;54.346;18.562;2022-11-20T04:51:12;99950.20;;;-3.63;100.00
57024;BME280;42916;54.346;18.562;2022-11-20T04:53:38;99945.27;;;-3.71;100.00
57024;BME280;42916;54.346;18.562;2022-11-20T04:56:07;99941.70;;;-3.77;100.00
57024;BME280;42916;54.346;18.562;2022-11-20T04:58:34;99940.54;;;-3.86;100.00
57024;BME280;42916;54.346;18.562;2022-11-20T05:03:29;99934.47;;;-4.03;100.00
57024;BME280;42916;54.346;18.562;2022-11-20T05:05:56;99937.08;;;-4.10;100.00
57024;BME280;42916;54.346;18.562;2022-11-20T05:08:25;99935.60;;;-4.16;100.00
57024;BME280;42916;54.346;18.562;2022-11-20T05:10:52;99937.61;;;-4.22;100.00
57024;BME280;42916;54.346;18.562;2022-11-20T05:13:19;99934.04;;;-4.26;100.00
57024;BME280;42916;54.346;18.562;2022-11-20T05:15:45;99928.90;;;-4.31;100.00
57024;BME280;42916;54.346;18.562;2022-11-20T05:18:12;99925.33;;;-4.35;100.00
57024;BME280;42916;54.346;18.562;2022-11-20T05:20:38;99928.46;;;-4.40;100.00
57024;BME280;42916;54.346;18.562;2022-11-20T05:23:05;99925.95;;;-4.44;100.00
57024;BME280;42916;54.346;18.562;2022-11-20T05:25:31;99922.60;;;-4.47;100.00
57024;BME280;42916;54.346;18.562;2022-11-20T05:27:58;99921.95;;;-4.48;100.00
57024;BME280;42916;54.346;18.562;2022-11-20T05:30:25;99917.88;;;-4.45;100.00
57024;BME280;42916;54.346;18.562;2022-11-20T05:32:51;99917.66;;;-4.43;100.00
57024;BME280;42916;54.346;18.562;2022-11-20T05:35:18;99915.06;;;-4.42;100.00
57024;BME280;42916;54.346;18.562;2022-11-20T05:37:44;99916.86;;;-4.44;100.00
57024;BME280;42916;54.346;18.562;2022-11-20T05:40:11;99911.29;;;-4.47;100.00
57024;BME280;42916;54.346;18.562;2022-11-20T05:42:38;99908.95;;;-4.48;100.00
57024;BME280;42916;54.346;18.562;2022-11-20T05:45:05;99905.42;;;-4.52;100.00
57024;BME280;42916;54.346;18.562;2022-11-20T05:47:33;99907.52;;;-4.57;100.00
57024;BME280;42916;54.346;18.562;2022-11-20T05:50:01;99911.76;;;-4.60;100.00
57024;BME280;42916;54.346;18.562;2022-11-20T05:52:29;99908.83;;;-4.62;100.00
57024;BME280;42916;54.346;18.562;2022-11-20T05:54:56;99908.07;;;-4.65;100.00
57024;BME280;42916;54.346;18.562;2022-11-20T05:57:22;99906.79;;;-4.68;100.00
57024;BME280;42916;54.346;18.562;2022-11-20T05:59:49;99902.55;;;-4.71;100.00
57024;BME280;42916;54.346;18.562;2022-11-20T06:02:16;99902.21;;;-4.75;100.00
57024;BME280;42916;54.346;18.562;2022-11-20T06:04:44;99901.83;;;-4.79;100.00
57024;BME280;42916;54.346;18.562;2022-11-20T06:07:11;99900.94;;;-4.84;100.00
57024;BME280;42916;54.346;18.562;2022-11-20T06:09:37;99901.17;;;-4.87;100.00
57024;BME280;42916;54.346;18.562;2022-11-20T06:12:04;99898.95;;;-4.90;100.00
57024;BME280;42916;54.346;18.562;2022-11-20T06:14:31;99901.61;;;-4.94;100.00
57024;BME280;42916;54.346;18.562;2022-11-20T06:16:57;99901.17;;;-4.96;100.00
57024;BME280;42916;54.346;18.562;2022-11-20T06:19:24;99898.63;;;-4.99;100.00
57024;BME280;42916;54.346;18.562;2022-11-20T06:21:51;99900.75;;;-5.00;100.00
57024;BME280;42916;54.346;18.562;2022-11-20T06:24:17;99896.93;;;-5.06;100.00
57024;BME280;42916;54.346;18.562;2022-11-20T06:26:44;99897.06;;;-5.12;100.00
57024;BME280;42916;54.346;18.562;2022-11-20T06:29:11;99895.98;;;-5.17;100.00
57024;BME280;42916;54.346;18.562;2022-11-20T06:31:38;99893.84;;;-5.20;100.00
57024;BME280;42916;54.346;18.562;2022-11-20T06:34:05;99896.34;;;-5.18;100.00
57024;BME280;42916;54.346;18.562;2022-11-20T06:36:33;99895.70;;;-5.14;100.00
57024;BME280;42916;54.346;18.562;2022-11-20T06:39:00;99894.38;;;-5.08;100.00
57024;BME280;42916;54.346;18.562;2022-11-20T06:41:27;99897.84;;;-5.04;100.00
57024;BME280;42916;54.346;18.562;2022-11-20T06:43:54;99896.06;;;-4.99;100.00
57024;BME280;42916;54.346;18.562;2022-11-20T06:46:21;99894.38;;;-4.96;100.00
57024;BME280;42916;54.346;18.562;2022-11-20T06:48:48;99896.33;;;-4.91;100.00
57024;BME280;42916;54.346;18.562;2022-11-20T06:51:16;99904.48;;;-4.86;100.00
57024;BME280;42916;54.346;18.562;2022-11-20T06:53:42;99909.42;;;-4.81;100.00
57024;BME280;42916;54.346;18.562;2022-11-20T06:56:09;99915.48;;;-4.71;100.00
57024;BME280;42916;54.346;18.562;2022-11-20T06:58:36;99911.39;;;-4.63;100.00
57024;BME280;42916;54.346;18.562;2022-11-20T07:01:09;99906.98;;;-4.54;100.00
57024;BME280;42916;54.346;18.562;2022-11-20T07:03:36;99910.62;;;-4.43;100.00
57024;BME280;42916;54.346;18.562;2022-11-20T07:06:04;99904.66;;;-4.34;100.00
57024;BME280;42916;54.346;18.562;2022-11-20T07:08:31;99906.95;;;-4.24;100.00
57024;BME280;42916;54.346;18.562;2022-11-20T07:11:00;99905.22;;;-4.13;100.00
57024;BME280;42916;54.346;18.562;2022-11-20T07:13:28;99904.83;;;-4.05;100.00
57024;BME280;42916;54.346;18.562;2022-11-20T07:15:55;99904.98;;;-3.96;100.00
57024;BME280;42916;54.346;18.562;2022-11-20T07:18:25;99902.23;;;-3.88;100.00
57024;BME280;42916;54.346;18.562;2022-11-20T07:20:51;99904.86;;;-3.85;100.00
57024;BME280;42916;54.346;18.562;2022-11-20T07:23:18;99914.99;;;-3.84;100.00
57024;BME280;42916;54.346;18.562;2022-11-20T07:25:45;99907.71;;;-3.79;100.00
57024;BME280;42916;54.346;18.562;2022-11-20T07:28:11;99907.06;;;-3.75;100.00
57024;BME280;42916;54.346;18.562;2022-11-20T07:30:38;99906.48;;;-3.69;100.00
57024;BME280;42916;54.346;18.562;2022-11-20T07:33:04;99906.15;;;-3.64;100.00
57024;BME280;42916;54.346;18.562;2022-11-20T07:35:31;99900.63;;;-3.55;100.00
57024;BME280;42916;54.346;18.562;2022-11-20T07:37:58;99905.05;;;-3.48;100.00
57024;BME280;42916;54.346;18.562;2022-11-20T07:40:25;99903.26;;;-3.38;100.00
57024;BME280;42916;54.346;18.562;2022-11-20T07:42:54;99901.92;;;-3.31;100.00
57024;BME280;42916;54.346;18.562;2022-11-20T07:45:22;99900.54;;;-3.24;100.00
57024;BME280;42916;54.346;18.562;2022-11-20T07:47:50;99893.07;;;-3.18;100.00
57024;BME280;42916;54.346;18.562;2022-11-20T07:50:17;99898.05;;;-3.12;100.00
57024;BME280;42916;54.346;18.562;2022-11-20T07:52:44;99893.93;;;-3.08;100.00
57024;BME280;42916;54.346;18.562;2022-11-20T07:55:11;99892.73;;;-3.07;100.00
57024;BME280;42916;54.346;18.562;2022-11-20T07:57:38;99892.02;;;-2.99;100.00
57024;BME280;42916;54.346;18.562;2022-11-20T08:00:06;99888.81;;;-2.93;100.00
57024;BME280;42916;54.346;18.562;2022-11-20T08:02:41;99888.81;;;-2.86;100.00
57024;BME280;42916;54.346;18.562;2022-11-20T08:05:09;99894.50;;;-2.78;100.00
57024;BME280;42916;54.346;18.562;2022-11-20T08:07:40;99889.83;;;-2.70;100.00
57024;BME280;42916;54.346;18.562;2022-11-20T08:10:08;99887.52;;;-2.61;100.00
57024;BME280;42916;54.346;18.562;2022-11-20T08:12:35;99886.33;;;-2.55;100.00
57024;BME280;42916;54.346;18.562;2022-11-20T08:15:21;99883.31;;;-2.57;100.00
57024;BME280;42916;54.346;18.562;2022-11-20T08:17:48;99882.53;;;-2.59;100.00
57024;BME280;42916;54.346;18.562;2022-11-20T08:20:14;99881.30;;;-2.55;100.00
57024;BME280;42916;54.346;18.562;2022-11-20T08:22:41;99886.60;;;-2.44;100.00
57024;BME280;42916;54.346;18.562;2022-11-20T08:25:07;99886.79;;;-2.35;100.00
57024;BME280;42916;54.346;18.562;2022-11-20T08:27:34;99884.58;;;-2.32;100.00
57024;BME280;42916;54.346;18.562;2022-11-20T08:30:01;99880.55;;;-2.26;100.00
57024;BME280;42916;54.346;18.562;2022-11-20T08:32:27;99881.02;;;-2.21;100.00
57024;BME280;42916;54.346;18.562;2022-11-20T08:34:54;99879.14;;;-2.17;100.00
57024;BME280;42916;54.346;18.562;2022-11-20T08:37:20;99876.94;;;-2.15;100.00
57024;BME280;42916;54.346;18.562;2022-11-20T08:39:47;99878.38;;;-2.17;100.00
57024;BME280;42916;54.346;18.562;2022-11-20T08:42:13;99878.01;;;-2.20;100.00
57024;BME280;42916;54.346;18.562;2022-11-20T08:44:40;99876.63;;;-2.22;100.00
57024;BME280;42916;54.346;18.562;2022-11-20T08:47:07;99876.63;;;-2.21;100.00
57024;BME280;42916;54.346;18.562;2022-11-20T08:49:33;99874.33;;;-2.20;100.00
57024;BME280;42916;54.346;18.562;2022-11-20T08:52:00;99868.64;;;-2.21;100.00
57024;BME280;42916;54.346;18.562;2022-11-20T08:54:27;99864.67;;;-2.24;100.00
57024;BME280;42916;54.346;18.562;2022-11-20T08:56:53;99862.58;;;-2.24;100.00
57024;BME280;42916;54.346;18.562;2022-11-20T08:59:20;99857.19;;;-2.22;100.00
57024;BME280;42916;54.346;18.562;2022-11-20T09:01:47;99861.30;;;-2.21;100.00
57024;BME280;42916;54.346;18.562;2022-11-20T09:04:13;99856.91;;;-2.21;100.00
57024;BME280;42916;54.346;18.562;2022-11-20T09:06:40;99857.70;;;-2.21;100.00
57024;BME280;42916;54.346;18.562;2022-11-20T09:09:07;99857.56;;;-2.18;100.00
57024;BME280;42916;54.346;18.562;2022-11-20T09:11:34;99861.05;;;-2.15;100.00
57024;BME280;42916;54.346;18.562;2022-11-20T09:14:02;99860.09;;;-2.11;100.00
57024;BME280;42916;54.346;18.562;2022-11-20T09:16:30;99858.44;;;-2.05;100.00
57024;BME280;42916;54.346;18.562;2022-11-20T09:18:57;99856.63;;;-1.99;100.00
57024;BME280;42916;54.346;18.562;2022-11-20T09:21:23;99851.52;;;-1.93;100.00
57024;BME280;42916;54.346;18.562;2022-11-20T09:23:50;99844.52;;;-1.88;100.00
57024;BME280;42916;54.346;18.562;2022-11-20T09:26:17;99843.40;;;-1.86;100.00
57024;BME280;42916;54.346;18.562;2022-11-20T09:28:44;99838.73;;;-1.86;100.00
57024;BME280;42916;54.346;18.562;2022-11-20T09:31:23;99830.66;;;-1.85;100.00
57024;BME280;42916;54.346;18.562;2022-11-20T09:33:50;99830.16;;;-1.85;100.00
57024;BME280;42916;54.346;18.562;2022-11-20T09:36:17;99830.42;;;-1.87;100.00
57024;BME280;42916;54.346;18.562;2022-11-20T09:38:45;99829.50;;;-1.86;100.00
57024;BME280;42916;54.346;18.562;2022-11-20T09:47:19;99826.45;;;-1.80;100.00
57024;BME280;42916;54.346;18.562;2022-11-20T09:50:02;99824.96;;;-1.81;100.00
57024;BME280;42916;54.346;18.562;2022-11-20T09:55:29;99823.60;;;-1.74;100.00
57024;BME280;42916;54.346;18.562;2022-11-20T09:57:57;99820.11;;;-1.77;100.00
57024;BME280;42916;54.346;18.562;2022-11-20T10:00:26;99818.81;;;-1.83;100.00
57024;BME280;42916;54.346;18.562;2022-11-20T10:03:14;99819.05;;;-1.84;100.00
57024;BME280;42916;54.346;18.562;2022-11-20T10:05:54;99818.79;;;-1.83;100.00
57024;BME280;42916;54.346;18.562;2022-11-20T10:11:41;99812.05;;;-1.74;100.00
57024;BME280;42916;54.346;18.562;2022-11-20T10:22:34;99811.06;;;-1.80;100.00
57024;BME280;42916;54.346;18.562;2022-11-20T10:25:17;99812.11;;;-1.79;100.00
57024;BME280;42916;54.346;18.562;2022-11-20T10:30:24;99807.19;;;-1.75;100.00
57024;BME280;42916;54.346;18.562;2022-11-20T10:33:04;99808.13;;;-1.71;100.00
57024;BME280;42916;54.346;18.562;2022-11-20T10:35:39;99806.37;;;-1.67;100.00
57024;BME280;42916;54.346;18.562;2022-11-20T10:38:22;99802.17;;;-1.67;100.00
57024;BME280;42916;54.346;18.562;2022-11-20T10:40:55;99803.17;;;-1.65;100.00
57024;BME280;42916;54.346;18.562;2022-11-20T10:43:46;99796.25;;;-1.64;100.00
57024;BME280;42916;54.346;18.562;2022-11-20T10:46:18;99799.53;;;-1.65;100.00
57024;BME280;42916;54.346;18.562;2022-11-20T10:48:46;99796.09;;;-1.64;100.00
57024;BME280;42916;54.346;18.562;2022-11-20T10:51:30;99794.19;;;-1.56;100.00
57024;BME280;42916;54.346;18.562;2022-11-20T10:56:56;99784.29;;;-1.34;100.00
57024;BME280;42916;54.346;18.562;2022-11-20T11:02:23;99785.39;;;-1.19;100.00
57024;BME280;42916;54.346;18.562;2022-11-20T11:04:52;99784.72;;;-1.10;100.00
57024;BME280;42916;54.346;18.562;2022-11-20T11:07:27;99778.59;;;-1.05;100.00
57024;BME280;42916;54.346;18.562;2022-11-20T11:09:56;99779.80;;;-1.04;100.00
57024;BME280;42916;54.346;18.562;2022-11-20T11:12:28;99776.03;;;-1.08;100.00
57024;BME280;42916;54.346;18.562;2022-11-20T11:14:56;99773.00;;;-1.12;100.00
57024;BME280;42916;54.346;18.562;2022-11-20T11:17:31;99780.87;;;-1.15;100.00
57024;BME280;42916;54.346;18.562;2022-11-20T11:20:01;99775.86;;;-1.21;100.00
57024;BME280;42916;54.346;18.562;2022-11-20T11:22:31;99782.59;;;-1.26;100.00
57024;BME280;42916;54.346;18.562;2022-11-20T11:24:59;99777.94;;;-1.27;100.00
57024;BME280;42916;54.346;18.562;2022-11-20T11:27:26;99776.37;;;-1.27;100.00
57024;BME280;42916;54.346;18.562;2022-11-20T11:30:12;99779.91;;;-1.28;100.00
57024;BME280;42916;54.346;18.562;2022-11-20T11:32:40;99772.61;;;-1.30;100.00
57024;BME280;42916;54.346;18.562;2022-11-20T11:35:20;99769.83;;;-1.29;100.00
57024;BME280;42916;54.346;18.562;2022-11-20T11:37:48;99760.73;;;-1.30;100.00
57024;BME280;42916;54.346;18.562;2022-11-20T11:40:17;99756.39;;;-1.31;100.00
57024;BME280;42916;54.346;18.562;2022-11-20T11:42:57;99756.92;;;-1.27;100.00
57024;BME280;42916;54.346;18.562;2022-11-20T11:45:25;99753.72;;;-1.27;100.00
57024;BME280;42916;54.346;18.562;2022-11-20T11:47:53;99759.48;;;-1.30;100.00
57024;BME280;42916;54.346;18.562;2022-11-20T11:50:22;99754.59;;;-1.31;100.00
57024;BME280;42916;54.346;18.562;2022-11-20T11:55:40;99752.80;;;-1.28;100.00
57024;BME280;42916;54.346;18.562;2022-11-20T12:00:54;99739.68;;;-1.31;100.00
57024;BME280;42916;54.346;18.562;2022-11-20T12:03:38;99736.27;;;-1.35;100.00
57024;BME280;42916;54.346;18.562;2022-11-20T12:06:14;99733.73;;;-1.36;100.00
57024;BME280;42916;54.346;18.562;2022-11-20T12:08:48;99732.86;;;-1.37;100.00
57024;BME280;42916;54.346;18.562;2022-11-20T12:11:33;99727.60;;;-1.34;100.00
57024;BME280;42916;54.346;18.562;2022-11-20T12:14:14;99723.98;;;-1.29;100.00
57024;BME280;42916;54.346;18.562;2022-11-20T12:16:45;99719.55;;;-1.23;100.00
57024;BME280;42916;54.346;18.562;2022-11-20T12:19:13;99717.25;;;-1.17;100.00
57024;BME280;42916;54.346;18.562;2022-11-20T12:25:07;99716.52;;;-1.04;100.00
57024;BME280;42916;54.346;18.562;2022-11-20T12:30:20;99714.95;;;-1.03;100.00
57024;BME280;42916;54.346;18.562;2022-11-20T12:40:38;99701.88;;;-0.97;100.00
57024;BME280;42916;54.346;18.562;2022-11-20T12:43:46;99697.06;;;-1.00;100.00
57024;BME280;42916;54.346;18.562;2022-11-20T12:47:04;99692.71;;;-1.00;100.00
57024;BME280;42916;54.346;18.562;2022-11-20T12:49:54;99691.17;;;-1.02;100.00
57024;BME280;42916;54.346;18.562;2022-11-20T12:52:35;99685.66;;;-1.05;100.00
57024;BME280;42916;54.346;18.562;2022-11-20T12:55:25;99687.15;;;-1.09;100.00
57024;BME280;42916;54.346;18.562;2022-11-20T12:58:28;99685.41;;;-1.11;100.00
57024;BME280;42916;54.346;18.562;2022-11-20T13:04:23;99675.13;;;-1.18;100.00
57024;BME280;42916;54.346;18.562;2022-11-20T13:06:54;99667.98;;;-1.18;100.00
57024;BME280;42916;54.346;18.562;2022-11-20T13:09:22;99665.07;;;-1.21;100.00
57024;BME280;42916;54.346;18.562;2022-11-20T13:12:03;99661.58;;;-1.23;100.00
57024;BME280;42916;54.346;18.562;2022-11-20T13:14:40;99666.53;;;-1.25;100.00
57024;BME280;42916;54.346;18.562;2022-11-20T13:17:22;99665.28;;;-1.27;100.00
57024;BME280;42916;54.346;18.562;2022-11-20T13:19:53;99663.13;;;-1.24;100.00
57024;BME280;42916;54.346;18.562;2022-11-20T13:22:29;99663.55;;;-1.22;100.00
57024;BME280;42916;54.346;18.562;2022-11-20T13:25:27;99657.13;;;-1.24;100.00
57024;BME280;42916;54.346;18.562;2022-11-20T13:27:58;99661.07;;;-1.26;100.00
57024;BME280;42916;54.346;18.562;2022-11-20T13:30:29;99660.36;;;-1.26;100.00
57024;BME280;42916;54.346;18.562;2022-11-20T13:38:10;99656.23;;;-1.31;100.00
57024;BME280;42916;54.346;18.562;2022-11-20T13:40:55;99656.06;;;-1.31;100.00
57024;BME280;42916;54.346;18.562;2022-11-20T13:46:04;99645.95;;;-1.34;100.00
57024;BME280;42916;54.346;18.562;2022-11-20T13:48:33;99646.47;;;-1.36;100.00
57024;BME280;42916;54.346;18.562;2022-11-20T13:59:53;99640.41;;;-1.46;100.00
57024;BME280;42916;54.346;18.562;2022-11-20T14:02:26;99634.37;;;-1.48;100.00
57024;BME280;42916;54.346;18.562;2022-11-20T14:04:56;99633.17;;;-1.49;100.00
57024;BME280;42916;54.346;18.562;2022-11-20T14:07:27;99634.27;;;-1.50;100.00
57024;BME280;42916;54.346;18.562;2022-11-20T14:09:58;99628.82;;;-1.52;100.00
57024;BME280;42916;54.346;18.562;2022-11-20T14:12:30;99631.75;;;-1.54;100.00
57024;BME280;42916;54.346;18.562;2022-11-20T14:14:57;99628.45;;;-1.57;100.00
57024;BME280;42916;54.346;18.562;2022-11-20T14:20:11;99626.15;;;-1.58;100.00
57024;BME280;42916;54.346;18.562;2022-11-20T14:22:39;99622.70;;;-1.57;100.00
57024;BME280;42916;54.346;18.562;2022-11-20T14:25:18;99620.56;;;-1.59;100.00